This is the latest recevied weather packets stored in our database for station/object SP9WPN-12. If no packets are shown the sender has not sent any weather packets the latest 10 day(s).
| Time | Temp. | Humidity | Pressure | Rain* | Wind** | Luminosity | Snow |
|---|---|---|---|---|---|---|---|
| 1777896199 | 26.67° C | 29% | 1013.1 hPa | - | - | - | - |
| 1777895601 | 26.11° C | 30% | 1013.3 hPa | - | - | - | - |
| 1777895004 | 27.22° C | 28% | 1013.3 hPa | - | - | - | - |
| 1777894407 | 26.67° C | 29% | 1013.4 hPa | - | - | - | - |
| 1777893810 | 26.67° C | 28% | 1013.5 hPa | - | - | - | - |
| 1777893212 | 27.78° C | 28% | 1013.4 hPa | - | - | - | - |
| 1777892614 | 27.78° C | 27% | 1013.6 hPa | - | - | - | - |
| 1777892016 | 27.22° C | 29% | 1013.8 hPa | - | - | - | - |
| 1777891418 | 26.67° C | 29% | 1014 hPa | - | - | - | - |
| 1777890820 | 25.56° C | 31% | 1014.2 hPa | - | - | - | - |
| 1777890223 | 23.89° C | 32% | 1014.5 hPa | - | - | - | - |
| 1777889625 | 26.67° C | 29% | 1014.4 hPa | - | - | - | - |
| 1777889027 | 27.78° C | 29% | 1014.4 hPa | - | - | - | - |
| 1777888429 | 27.22° C | 29% | 1014.5 hPa | - | - | - | - |
| 1777887832 | 25.56° C | 31% | 1014.9 hPa | - | - | - | - |
| 1777887235 | 25° C | 30% | 1015 hPa | - | - | - | - |
| 1777886637 | 25.56° C | 29% | 1015.1 hPa | - | - | - | - |
| 1777886039 | 23.89° C | 31% | 1015.3 hPa | - | - | - | - |
| 1777885441 | 25° C | 31% | 1015.2 hPa | - | - | - | - |
| 1777884842 | 25° C | 30% | 1015.2 hPa | - | - | - | - |
| 1777884245 | 25° C | 30% | 1015.4 hPa | - | - | - | - |
| 1777883647 | 23.89° C | 31% | 1015.4 hPa | - | - | - | - |
| 1777883049 | 23.89° C | 31% | 1015.5 hPa | - | - | - | - |
| 1777882451 | 23.89° C | 31% | 1015.5 hPa | - | - | - | - |
| 1777881854 | 23.89° C | 31% | 1015.6 hPa | - | - | - | - |
* Rain since midnight (hover to see other rain measurements)
** Current wind speed in m/s (hover to see current wind gust speed)